チャットラパティー・シヴァージー国際空港の過去48時間の天気

チャットラパティー・シヴァージー国際空港 (Bombay / Santacruz)

現在時刻: 12/8 11:13 IST (12/8 05:43 UTC) 以下の時間は現地時間です。

過去48時間のMETAR気象情報
時間 風向 風速(m/s) 視程 気温(℃) 湿度(%) 気圧(hPa) 天気現象
8 11:00 東南東 3 2200m 30 46 1014
8 10:30 東南東 4 2200m 29 48 1014
8 10:00 3 2100m 28 55 1014
8 09:30 3 2100m 27 58 1014 煙霧
8 09:00 4 2100m 27 58 1014 煙霧
8 08:30 4 2100m 26 61 1013 煙霧
8 08:00 4 2100m 26 65 1013 煙霧
8 07:30 東南東 3 2000m 25 69 1012 煙霧
8 07:00 2 2000m 25 69 1012 煙霧
8 06:30 静穏 0 2000m 26 65 1011 煙霧
8 06:00 南東 2 2000m 26 65 1011 煙霧
8 05:30 2 2000m 25 69 1011 煙霧
8 05:00 静穏 0 2000m 26 65 1011 煙霧
8 04:30 3 2000m 25 69 1010 煙霧
8 04:00 3 2500m 25 69 1010 煙霧
8 03:30 東南東 2 2500m 26 65 1010 煙霧
8 03:00 静穏 0 2500m 26 61 1010 煙霧
8 02:30 静穏 0 2500m 26 61 1011 煙霧
8 02:00 2 2200m 26 65 1011 煙霧
8 01:30 2 2200m 26 65 1011 煙霧
8 01:00 静穏 0 1800m 27 66 1011 煙霧
8 00:30 静穏 0 1800m 27 66 1011 煙霧
8 00:00 静穏 0 1800m 27 66 1011 煙霧
7 23:30 不定 2 1800m 28 66 1012 煙霧
7 23:00 北北西 2 1700m 28 62 1012 煙霧
7 22:30 北北東 2 1700m 29 58 1012 煙霧
7 22:00 北西 2 2000m 28 66 1012 煙霧
7 21:30 2 2000m 28 66 1012 煙霧
7 21:00 2 2000m 29 58 1012
7 20:30 北北西 3 1800m 28 62 1012
7 20:00 3 1800m 28 62 1011
7 19:30 北北西 3 1800m 27 70 1011 煙霧
7 19:00 北北西 3 1800m 29 62 1011 煙霧
7 18:30 北西 3 1800m 29 62 1010 煙霧
7 18:00 北西 3 1800m 29 58 1010
7 17:30 北西 3 2000m 30 59 1010
7 17:00 北西 4 2000m 30 55 1010
7 16:30 北西 4 2000m 31 52 1009
7 16:00 西北西 4 2000m 31 55 1009
7 15:30 西北西 5 2000m 32 49 1009 煙霧
7 15:00 西 5 2000m 32 52 1009
7 14:30 西 5 2000m 33 46 1009
7 14:00 西南西 5 2000m 33 46 1009
7 13:30 西 5 2200m 32 52 1010
7 13:00 西南西 5 2000m 32 56 1011
7 12:30 西 3 2000m 32 63 1011
7 12:00 西 2 2500m 32 49 1012
7 11:30 静穏 0 2500m 33 41 1013
7 11:00 静穏 0 2000m 32 46 1013
7 10:30 東南東 2 2000m 31 52 1013 煙霧
7 10:00 南東 2 2000m 30 59 1013 煙霧
7 09:30 東南東 3 1700m 29 70 1013 煙霧
7 09:00 静穏 0 1300m 28 74 1013 煙霧
7 08:30 静穏 0 1300m 27 79 1013 煙霧
7 08:00 北東 2 1500m 27 79 1012 煙霧
7 07:30 静穏 0 1500m 26 79 1012 煙霧
7 07:00 2 1500m 26 84 1012 煙霧
7 06:30 静穏 0 1700m 26 79 1011 煙霧
7 06:00 3 1700m 26 79 1011 煙霧
7 05:30 東北東 2 1700m 26 79 1011 煙霧
7 05:00 北北東 2 1700m 27 74 1011 煙霧
7 04:30 静穏 0 1700m 27 70 1011 煙霧
7 04:00 北北東 2 1700m 26 79 1011 煙霧
7 03:30 北東 2 1500m 27 74 1011 煙霧
7 03:00 静穏 0 1500m 27 74 1011 煙霧
7 02:30 静穏 0 1700m 27 74 1011 煙霧
7 02:00 南西 2 1700m 27 74 1012 煙霧
7 01:30 西 2 1500m 27 74 1012 煙霧
7 01:00 静穏 0 1800m 27 74 1012 煙霧
7 00:30 静穏 0 2100m 28 66 1012 煙霧
7 00:00 2 2200m 28 66 1012 煙霧
6 23:30 南南西 2 2500m 29 58 1013 煙霧
6 23:00 北北西 2 2500m 29 62 1013 煙霧
6 22:30 北西 2 2500m 29 55 1013
6 21:30 静穏 0 2500m 28 66 1013 煙霧
6 21:00 北北東 2 2500m 28 70 1012 煙霧
6 20:30 北北東 2 2500m 29 62 1012 煙霧
6 20:00 北西 2 2500m 29 62 1012 煙霧
6 19:30 2 2200m 29 66 1011 煙霧
6 19:00 3 2200m 29 62 1011 煙霧
6 18:30 北北西 3 1800m 29 70 1010 煙霧
6 18:00 北北西 3 1700m 29 70 1010 煙霧
6 17:30 北北西 3 2100m 30 62 1010 煙霧
6 17:00 北西 3 2100m 30 59 1010
6 16:30 北西 3 2100m 31 55 1010
6 16:00 北北東 3 2100m 32 52 1009
6 15:30 北北西 4 1800m 32 49 1010
6 15:00 北西 3 1800m 32 56 1010
6 14:30 西 2 1800m 32 59 1010
6 14:00 西南西 5 1800m 32 52 1010
6 13:30 西南西 5 1800m 32 52 1011
6 13:00 西南西 6 1800m 34 47 1011
6 12:30 静穏 0 2100m 34 39 1012
6 12:00 3 2100m 33 44 1012
6 11:30 東南東 2 2100m 32 43 1013
VABB 080530Z 12006KT 2200 FU NSC 30/17 Q1014 NOSIG
VABB 080500Z 11007KT 2200 FU FEW100 29/17 Q1014 NOSIG
VABB 080430Z 08005KT 2100 FU FEW100 28/18 Q1014 NOSIG
VABB 080400Z 09006KT 2100 HZ FEW100 27/18 Q1014 NOSIG
VABB 080330Z 09007KT 2100 HZ FEW100 27/18 Q1014 NOSIG
VABB 080300Z 08007KT 2100 HZ FEW100 26/18 Q1013 TEMPO 1500 HZ
VABB 080230Z 08007KT 2100 HZ FEW100 26/19 Q1013 NOSIG
VABB 080200Z 11006KT 2000 HZ SCT100 25/19 Q1012 NOSIG
VABB 080130Z 09004KT 2000 HZ NSC 25/19 Q1012 NOSIG
VABB 080100Z 00000KT 2000 HZ NSC 26/19 Q1011 NOSIG
VABB 080030Z 13004KT 2000 HZ NSC 26/19 Q1011 NOSIG
VABB 080000Z 08004KT 2000 HZ NSC 25/19 Q1011 NOSIG
VABB 072330Z 00000KT 2000 HZ NSC 26/19 Q1011 NOSIG
VABB 072300Z 09006KT 2000 HZ NSC 25/19 Q1010 NOSIG
VABB 072230Z 09005KT 2500 HZ NSC 25/19 Q1010 NOSIG
VABB 072200Z 11003KT 2500 HZ NSC 26/19 Q1010 NOSIG
VABB 072130Z 00000KT 2500 HZ NSC 26/18 Q1010 NOSIG
VABB 072100Z 00000KT 2500 HZ NSC 26/18 Q1011 NOSIG
VABB 072030Z 10004KT 2200 HZ NSC 26/19 Q1011 NOSIG
VABB 072000Z 08003KT 2200 HZ NSC 26/19 Q1011 NOSIG
VABB 071930Z 00000KT 1800 HZ NSC 27/20 Q1011 NOSIG
VABB 071900Z 00000KT 1800 HZ NSC 27/20 Q1011 NOSIG
VABB 071830Z 00000KT 1800 HZ NSC 27/20 Q1011 NOSIG
VABB 071800Z VRB03KT 1800 HZ NSC 28/21 Q1012 NOSIG
VABB 071730Z 34003KT 1700 HZ NSC 28/20 Q1012 NOSIG
VABB 071700Z 02003KT 1700 HZ NSC 29/20 Q1012 NOSIG
VABB 071630Z 32003KT 2000 HZ NSC 28/21 Q1012 NOSIG
VABB 071600Z 01003KT 2000 HZ NSC 28/21 Q1012 NOSIG
VABB 071530Z 01003KT 2000 FU NSC 29/20 Q1012 NOSIG
VABB 071500Z 33006KT 1800 FU NSC 28/20 Q1012 NOSIG
VABB 071430Z 36006KT 1800 FU NSC 28/20 Q1011 NOSIG
VABB 071400Z 33006KT 1800 HZ FEW100 27/21 Q1011 NOSIG
VABB 071330Z 34005KT 1800 HZ NSC 29/21 Q1011 NOSIG
VABB 071300Z 32006KT 1800 HZ NSC 29/21 Q1010 NOSIG
VABB 071230Z 31006KT 1800 FU NSC 29/20 Q1010 NOSIG
VABB 071200Z 31005KT 2000 FU NSC 30/21 Q1010 NOSIG
VABB 071130Z 31008KT 2000 FU NSC 30/20 Q1010 NOSIG
VABB 071100Z 31008KT 2000 FU NSC 31/20 Q1009 NOSIG
VABB 071030Z 30008KT 2000 FU FEW100 31/21 Q1009 NOSIG
VABB 071000Z 30010KT 2000 HZ NSC 32/20 Q1009 NOSIG
VABB 070930Z 28010KT 2000 FU FEW100 32/21 Q1009 NOSIG
VABB 070900Z 27010KT 2000 FU FEW100 33/20 Q1009 NOSIG
VABB 070830Z 25010KT 2000 FU NSC 33/20 Q1009 NOSIG
VABB 070800Z 27010KT 2200 FU NSC 32/21 Q1010 NOSIG
VABB 070730Z 25009KT 2000 FU NSC 32/22 Q1011 NOSIG
VABB 070700Z 26005KT 2000 FU NSC 32/24 Q1011 NOSIG
VABB 070630Z 27003KT 2500 FU NSC 32/20 Q1012 NOSIG
VABB 070600Z 00000KT 2500 FU NSC 33/18 Q1013 NOSIG
VABB 070530Z 00000KT 2000 FU NSC 32/19 Q1013 NOSIG
VABB 070500Z 11004KT 2000 HZ NSC 31/20 Q1013 NOSIG
VABB 070430Z 13004KT 2000 HZ NSC 30/21 Q1013 NOSIG
VABB 070400Z 11006KT 1700 HZ NSC 29/23 Q1013 NOSIG
VABB 070330Z 00000KT 1300 R27/1700 HZ NSC 28/23 Q1013 NOSIG
VABB 070300Z 00000KT 1300 R27/1700 HZ NSC 27/23 Q1013 NOSIG
VABB 070230Z 05003KT 1500 HZ NSC 27/23 Q1012 NOSIG
VABB 070200Z 00000KT 1500 HZ NSC 26/22 Q1012 NOSIG
VABB 070130Z 10003KT 1500 HZ NSC 26/23 Q1012 NOSIG
VABB 070100Z 00000KT 1700 HZ NSC 26/22 Q1011 NOSIG
VABB 070030Z 09005KT 1700 HZ NSC 26/22 Q1011 NOSIG
VABB 070000Z 07003KT 1700 HZ NSC 26/22 Q1011 NOSIG
VABB 062330Z 03004KT 1700 HZ NSC 27/22 Q1011 NOSIG
VABB 062300Z 00000KT 1700 HZ NSC 27/21 Q1011 NOSIG
VABB 062230Z 02004KT 1700 HZ NSC 26/22 Q1011 NOSIG
VABB 062200Z 04004KT 1500 HZ NSC 27/22 Q1011 NOSIG
VABB 062130Z 00000KT 1500 HZ NSC 27/22 Q1011 NOSIG
VABB 062100Z 00000KT 1700 HZ NSC 27/22 Q1011 NOSIG
VABB 062030Z 23003KT 1700 HZ NSC 27/22 Q1012 NOSIG
VABB 062000Z 26004KT 1500 HZ NSC 27/22 Q1012 NOSIG
VABB 061930Z 00000KT 1800 HZ NSC 27/22 Q1012 NOSIG
VABB 061900Z 00000KT 2100 HZ NSC 28/21 Q1012 NOSIG
VABB 061830Z 18003KT 2200 HZ NSC 28/21 Q1012 NOSIG
VABB 061800Z 20004KT 2500 HZ NSC 29/20 Q1013 NOSIG
VABB 061730Z 33003KT 2500 HZ NSC 29/21 Q1013 NOSIG
VABB 061700Z 32003KT 2500 FU NSC 29/19 Q1013 NOSIG
VABB 061600Z 00000KT 2500 HZ NSC 28/21 Q1013 NOSIG
VABB 061530Z 03004KT 2500 HZ NSC 28/22 Q1012 NOSIG
VABB 061500Z 02004KT 2500 HZ NSC 29/21 Q1012 NOSIG
VABB 061430Z 32003KT 2500 HZ NSC 29/21 Q1012 NOSIG
VABB 061400Z 36004KT 2200 HZ NSC 29/22 Q1011 NOSIG
VABB 061330Z 35006KT 2200 HZ NSC 29/21 Q1011 NOSIG
VABB 061300Z 33005KT 1800 HZ NSC 29/23 Q1010 NOSIG
VABB 061230Z 33005KT 1700 HZ NSC 29/23 Q1010 NOSIG
VABB 061200Z 33006KT 2100 HZ NSC 30/22 Q1010 TEMPO 1500 HZ
VABB 061130Z 31006KT 2100 FU NSC 30/21 Q1010 NOSIG
VABB 061100Z 32006KT 2100 FU NSC 31/21 Q1010 NOSIG
VABB 061030Z 02006KT 2100 FU NSC 32/21 Q1009 NOSIG
VABB 061000Z 33007KT 1800 FU NSC 32/20 Q1010 NOSIG
VABB 060930Z 32006KT 1800 FU NSC 32/22 Q1010 NOSIG
VABB 060900Z 28004KT 1800 FU NSC 32/23 Q1010 NOSIG
VABB 060830Z 25009KT 1800 FU NSC 32/21 Q1010 NOSIG
VABB 060800Z 25009KT 1800 FU NSC 32/21 Q1011 NOSIG
VABB 060730Z 25011KT 1800 FU NSC 34/21 Q1011 NOSIG
VABB 060700Z 00000KT 2100 FU NSC 34/18 Q1012 NOSIG
VABB 060630Z 08005KT 2100 FU NSC 33/19 Q1012 NOSIG
VABB 060600Z 12004KT 2100 FU FEW100 32/18 Q1013 NOSIG